sensor_id;sensor_type;location;lat;lon;timestamp;temperature;humidity
21481;DHT22;10902;48.158;8.634;2023-02-01T00:01:22;1.90;99.90
21481;DHT22;10902;48.158;8.634;2023-02-01T00:03:47;1.90;99.90
21481;DHT22;10902;48.158;8.634;2023-02-01T00:06:13;1.90;99.90
21481;DHT22;10902;48.158;8.634;2023-02-01T00:08:38;1.90;99.90
21481;DHT22;10902;48.158;8.634;2023-02-01T00:11:09;1.90;99.90
21481;DHT22;10902;48.158;8.634;2023-02-01T00:13:37;1.90;99.90
21481;DHT22;10902;48.158;8.634;2023-02-01T00:16:14;1.80;99.90
21481;DHT22;10902;48.158;8.634;2023-02-01T00:18:44;1.80;99.90
21481;DHT22;10902;48.158;8.634;2023-02-01T00:21:11;1.80;99.90
21481;DHT22;10902;48.158;8.634;2023-02-01T00:23:37;1.90;99.90
21481;DHT22;10902;48.158;8.634;2023-02-01T00:26:05;1.80;99.90
21481;DHT22;10902;48.158;8.634;2023-02-01T00:28:31;1.80;99.90
21481;DHT22;10902;48.158;8.634;2023-02-01T00:30:58;1.80;99.90
21481;DHT22;10902;48.158;8.634;2023-02-01T00:33:24;1.80;99.90
21481;DHT22;10902;48.158;8.634;2023-02-01T00:35:49;1.80;99.90
21481;DHT22;10902;48.158;8.634;2023-02-01T00:38:15;1.90;99.90
21481;DHT22;10902;48.158;8.634;2023-02-01T00:40:40;1.90;99.90
21481;DHT22;10902;48.158;8.634;2023-02-01T00:43:06;1.90;99.90
21481;DHT22;10902;48.158;8.634;2023-02-01T00:45:32;1.80;99.90
21481;DHT22;10902;48.158;8.634;2023-02-01T00:47:57;1.80;99.90
21481;DHT22;10902;48.158;8.634;2023-02-01T00:50:23;1.80;99.90
21481;DHT22;10902;48.158;8.634;2023-02-01T00:52:48;1.80;99.90
21481;DHT22;10902;48.158;8.634;2023-02-01T00:55:14;1.80;99.90
21481;DHT22;10902;48.158;8.634;2023-02-01T00:57:39;1.80;99.90
21481;DHT22;10902;48.158;8.634;2023-02-01T01:00:05;1.80;99.90
21481;DHT22;10902;48.158;8.634;2023-02-01T01:02:31;1.80;99.90
21481;DHT22;10902;48.158;8.634;2023-02-01T01:04:56;1.80;99.90
21481;DHT22;10902;48.158;8.634;2023-02-01T01:07:22;1.90;99.90
21481;DHT22;10902;48.158;8.634;2023-02-01T01:09:47;1.80;99.90
21481;DHT22;10902;48.158;8.634;2023-02-01T01:12:13;1.80;99.90
21481;DHT22;10902;48.158;8.634;2023-02-01T01:14:39;1.90;99.90
21481;DHT22;10902;48.158;8.634;2023-02-01T01:17:04;1.90;99.90
21481;DHT22;10902;48.158;8.634;2023-02-01T01:19:30;1.90;99.90
21481;DHT22;10902;48.158;8.634;2023-02-01T01:21:55;1.90;99.90
21481;DHT22;10902;48.158;8.634;2023-02-01T01:24:21;1.90;99.90
21481;DHT22;10902;48.158;8.634;2023-02-01T01:26:46;1.90;99.90
21481;DHT22;10902;48.158;8.634;2023-02-01T01:29:12;1.90;99.90
21481;DHT22;10902;48.158;8.634;2023-02-01T01:31:38;1.90;99.90
21481;DHT22;10902;48.158;8.634;2023-02-01T01:34:03;1.90;99.90
21481;DHT22;10902;48.158;8.634;2023-02-01T01:36:29;1.90;99.90
21481;DHT22;10902;48.158;8.634;2023-02-01T01:38:55;1.90;99.90
21481;DHT22;10902;48.158;8.634;2023-02-01T01:41:24;1.90;99.90
21481;DHT22;10902;48.158;8.634;2023-02-01T01:44:03;1.90;99.90
21481;DHT22;10902;48.158;8.634;2023-02-01T01:46:31;1.90;99.90
21481;DHT22;10902;48.158;8.634;2023-02-01T01:49:02;1.90;99.90
21481;DHT22;10902;48.158;8.634;2023-02-01T01:51:30;1.90;99.90
21481;DHT22;10902;48.158;8.634;2023-02-01T01:56:39;1.90;99.90
21481;DHT22;10902;48.158;8.634;2023-02-01T01:59:05;1.90;99.90
21481;DHT22;10902;48.158;8.634;2023-02-01T02:01:31;1.90;99.90
21481;DHT22;10902;48.158;8.634;2023-02-01T02:03:58;1.90;99.90
21481;DHT22;10902;48.158;8.634;2023-02-01T02:09:03;2.00;99.90
21481;DHT22;10902;48.158;8.634;2023-02-01T02:11:28;2.00;99.90
21481;DHT22;10902;48.158;8.634;2023-02-01T02:13:55;2.10;99.90
21481;DHT22;10902;48.158;8.634;2023-02-01T02:16:32;2.10;99.90
21481;DHT22;10902;48.158;8.634;2023-02-01T02:22:27;2.10;99.90
21481;DHT22;10902;48.158;8.634;2023-02-01T02:25:27;2.10;99.90
21481;DHT22;10902;48.158;8.634;2023-02-01T02:28:16;2.00;99.90
21481;DHT22;10902;48.158;8.634;2023-02-01T02:33:57;2.00;99.90
21481;DHT22;10902;48.158;8.634;2023-02-01T02:45:08;1.90;99.90
21481;DHT22;10902;48.158;8.634;2023-02-01T02:48:24;1.80;99.90
21481;DHT22;10902;48.158;8.634;2023-02-01T02:56:38;1.70;99.90
21481;DHT22;10902;48.158;8.634;2023-02-01T02:59:24;1.70;99.90
21481;DHT22;10902;48.158;8.634;2023-02-01T03:02:10;1.80;99.90
21481;DHT22;10902;48.158;8.634;2023-02-01T03:04:54;1.70;99.90
21481;DHT22;10902;48.158;8.634;2023-02-01T03:07:53;1.70;99.90
21481;DHT22;10902;48.158;8.634;2023-02-01T03:13:14;1.70;99.90
21481;DHT22;10902;48.158;8.634;2023-02-01T03:18:55;1.70;99.90
21481;DHT22;10902;48.158;8.634;2023-02-01T03:21:26;1.70;99.90
21481;DHT22;10902;48.158;8.634;2023-02-01T03:23:54;1.70;99.90
21481;DHT22;10902;48.158;8.634;2023-02-01T03:26:24;1.80;99.90
21481;DHT22;10902;48.158;8.634;2023-02-01T03:28:57;1.80;99.90
21481;DHT22;10902;48.158;8.634;2023-02-01T03:31:27;1.80;99.90
21481;DHT22;10902;48.158;8.634;2023-02-01T03:33:53;1.80;99.90
21481;DHT22;10902;48.158;8.634;2023-02-01T03:36:47;1.80;99.90
21481;DHT22;10902;48.158;8.634;2023-02-01T03:41:49;1.80;99.90
21481;DHT22;10902;48.158;8.634;2023-02-01T03:44:31;1.80;99.90
21481;DHT22;10902;48.158;8.634;2023-02-01T03:47:03;1.80;99.90
21481;DHT22;10902;48.158;8.634;2023-02-01T03:49:45;1.80;99.90
21481;DHT22;10902;48.158;8.634;2023-02-01T03:52:20;1.90;99.90
21481;DHT22;10902;48.158;8.634;2023-02-01T03:54:47;1.80;99.90
21481;DHT22;10902;48.158;8.634;2023-02-01T03:57:16;1.90;99.90
21481;DHT22;10902;48.158;8.634;2023-02-01T03:59:45;1.80;99.90
21481;DHT22;10902;48.158;8.634;2023-02-01T04:02:11;1.90;99.90
21481;DHT22;10902;48.158;8.634;2023-02-01T04:04:37;1.90;99.90
21481;DHT22;10902;48.158;8.634;2023-02-01T04:07:02;1.90;99.90
21481;DHT22;10902;48.158;8.634;2023-02-01T04:09:28;1.90;99.90
21481;DHT22;10902;48.158;8.634;2023-02-01T04:11:54;1.90;99.90
21481;DHT22;10902;48.158;8.634;2023-02-01T04:14:19;1.90;99.90
21481;DHT22;10902;48.158;8.634;2023-02-01T04:16:45;2.00;99.90
21481;DHT22;10902;48.158;8.634;2023-02-01T04:19:11;2.00;99.90
21481;DHT22;10902;48.158;8.634;2023-02-01T04:21:36;2.00;99.90
21481;DHT22;10902;48.158;8.634;2023-02-01T04:24:02;2.00;99.90
21481;DHT22;10902;48.158;8.634;2023-02-01T04:26:27;2.00;99.90
21481;DHT22;10902;48.158;8.634;2023-02-01T04:28:53;2.00;99.90
21481;DHT22;10902;48.158;8.634;2023-02-01T04:31:20;1.90;99.90
21481;DHT22;10902;48.158;8.634;2023-02-01T04:34:13;1.90;99.90
21481;DHT22;10902;48.158;8.634;2023-02-01T04:36:45;1.90;99.90
21481;DHT22;10902;48.158;8.634;2023-02-01T04:39:15;1.90;99.90
21481;DHT22;10902;48.158;8.634;2023-02-01T04:41:41;1.80;99.90
21481;DHT22;10902;48.158;8.634;2023-02-01T04:44:14;1.80;99.90
21481;DHT22;10902;48.158;8.634;2023-02-01T04:46:40;1.80;99.90
21481;DHT22;10902;48.158;8.634;2023-02-01T04:49:07;1.80;99.90
21481;DHT22;10902;48.158;8.634;2023-02-01T04:51:33;1.80;99.90
21481;DHT22;10902;48.158;8.634;2023-02-01T04:53:59;1.80;99.90
21481;DHT22;10902;48.158;8.634;2023-02-01T04:56:24;1.80;99.90
21481;DHT22;10902;48.158;8.634;2023-02-01T04:58:50;1.80;99.90
21481;DHT22;10902;48.158;8.634;2023-02-01T05:01:15;1.80;99.90
21481;DHT22;10902;48.158;8.634;2023-02-01T05:03:41;1.80;99.90
21481;DHT22;10902;48.158;8.634;2023-02-01T05:06:07;1.80;99.90
21481;DHT22;10902;48.158;8.634;2023-02-01T05:08:33;1.90;99.90
21481;DHT22;10902;48.158;8.634;2023-02-01T05:10:58;1.90;99.90
21481;DHT22;10902;48.158;8.634;2023-02-01T05:13:25;1.90;99.90
21481;DHT22;10902;48.158;8.634;2023-02-01T05:16:09;1.90;99.90
21481;DHT22;10902;48.158;8.634;2023-02-01T05:18:34;2.00;99.90
21481;DHT22;10902;48.158;8.634;2023-02-01T05:21:00;2.00;99.90
21481;DHT22;10902;48.158;8.634;2023-02-01T05:23:27;2.00;99.90
21481;DHT22;10902;48.158;8.634;2023-02-01T05:25:52;2.00;99.90
21481;DHT22;10902;48.158;8.634;2023-02-01T05:28:23;2.00;99.90
21481;DHT22;10902;48.158;8.634;2023-02-01T05:30:48;2.00;99.90
21481;DHT22;10902;48.158;8.634;2023-02-01T05:33:14;2.00;99.90
21481;DHT22;10902;48.158;8.634;2023-02-01T05:35:39;2.00;99.90
21481;DHT22;10902;48.158;8.634;2023-02-01T05:38:05;2.10;99.90
21481;DHT22;10902;48.158;8.634;2023-02-01T05:40:30;2.10;99.90
21481;DHT22;10902;48.158;8.634;2023-02-01T05:42:56;2.00;99.90
21481;DHT22;10902;48.158;8.634;2023-02-01T05:45:21;2.10;99.90
21481;DHT22;10902;48.158;8.634;2023-02-01T05:47:47;2.00;99.90
21481;DHT22;10902;48.158;8.634;2023-02-01T05:50:12;2.00;99.90
21481;DHT22;10902;48.158;8.634;2023-02-01T05:52:38;2.00;99.90
21481;DHT22;10902;48.158;8.634;2023-02-01T05:55:04;2.00;99.90
21481;DHT22;10902;48.158;8.634;2023-02-01T05:57:29;2.00;99.90
21481;DHT22;10902;48.158;8.634;2023-02-01T05:59:55;2.00;99.90
21481;DHT22;10902;48.158;8.634;2023-02-01T06:02:21;2.00;99.90
21481;DHT22;10902;48.158;8.634;2023-02-01T06:04:47;2.00;99.90
21481;DHT22;10902;48.158;8.634;2023-02-01T06:07:12;2.00;99.90
21481;DHT22;10902;48.158;8.634;2023-02-01T06:09:38;2.00;99.90
21481;DHT22;10902;48.158;8.634;2023-02-01T06:12:04;2.00;99.90
21481;DHT22;10902;48.158;8.634;2023-02-01T06:14:30;2.10;99.90
21481;DHT22;10902;48.158;8.634;2023-02-01T06:16:55;2.10;99.90
21481;DHT22;10902;48.158;8.634;2023-02-01T06:19:22;2.20;99.90
21481;DHT22;10902;48.158;8.634;2023-02-01T06:21:48;2.10;99.90
21481;DHT22;10902;48.158;8.634;2023-02-01T06:24:14;2.10;99.90
21481;DHT22;10902;48.158;8.634;2023-02-01T06:26:40;2.10;99.90
21481;DHT22;10902;48.158;8.634;2023-02-01T06:29:10;2.10;99.90
21481;DHT22;10902;48.158;8.634;2023-02-01T06:31:36;2.10;99.90
21481;DHT22;10902;48.158;8.634;2023-02-01T06:34:01;2.20;99.90
21481;DHT22;10902;48.158;8.634;2023-02-01T06:36:28;2.10;99.90
21481;DHT22;10902;48.158;8.634;2023-02-01T06:38:55;2.00;99.90
21481;DHT22;10902;48.158;8.634;2023-02-01T06:41:22;2.00;99.90
21481;DHT22;10902;48.158;8.634;2023-02-01T06:43:48;2.00;99.90
21481;DHT22;10902;48.158;8.634;2023-02-01T06:46:14;2.00;99.90
21481;DHT22;10902;48.158;8.634;2023-02-01T06:48:40;2.00;99.90
21481;DHT22;10902;48.158;8.634;2023-02-01T06:51:05;2.00;99.90
21481;DHT22;10902;48.158;8.634;2023-02-01T06:53:31;2.10;99.90
21481;DHT22;10902;48.158;8.634;2023-02-01T06:56:01;2.10;99.90
21481;DHT22;10902;48.158;8.634;2023-02-01T06:58:31;2.10;99.90
21481;DHT22;10902;48.158;8.634;2023-02-01T07:00:57;2.10;99.90
21481;DHT22;10902;48.158;8.634;2023-02-01T07:03:23;2.10;99.90
21481;DHT22;10902;48.158;8.634;2023-02-01T07:05:49;2.00;99.90
21481;DHT22;10902;48.158;8.634;2023-02-01T07:08:14;2.00;99.90
21481;DHT22;10902;48.158;8.634;2023-02-01T07:10:40;2.00;99.90
21481;DHT22;10902;48.158;8.634;2023-02-01T07:13:06;1.90;99.90
21481;DHT22;10902;48.158;8.634;2023-02-01T07:15:31;1.80;99.90
21481;DHT22;10902;48.158;8.634;2023-02-01T07:17:57;1.80;99.90
21481;DHT22;10902;48.158;8.634;2023-02-01T07:20:23;1.80;99.90
21481;DHT22;10902;48.158;8.634;2023-02-01T07:22:49;1.80;99.90
21481;DHT22;10902;48.158;8.634;2023-02-01T07:25:19;1.80;99.90
21481;DHT22;10902;48.158;8.634;2023-02-01T07:27:45;1.80;99.90
21481;DHT22;10902;48.158;8.634;2023-02-01T07:30:12;1.90;99.90
21481;DHT22;10902;48.158;8.634;2023-02-01T07:32:37;1.90;99.90
21481;DHT22;10902;48.158;8.634;2023-02-01T07:35:03;2.00;99.90
21481;DHT22;10902;48.158;8.634;2023-02-01T07:37:29;2.00;99.90
21481;DHT22;10902;48.158;8.634;2023-02-01T07:39:56;2.00;99.90
21481;DHT22;10902;48.158;8.634;2023-02-01T07:42:21;2.00;99.90
21481;DHT22;10902;48.158;8.634;2023-02-01T07:44:47;2.00;99.90
21481;DHT22;10902;48.158;8.634;2023-02-01T07:47:12;2.00;99.90
21481;DHT22;10902;48.158;8.634;2023-02-01T07:49:38;2.00;99.90
21481;DHT22;10902;48.158;8.634;2023-02-01T07:52:03;2.10;99.90
21481;DHT22;10902;48.158;8.634;2023-02-01T07:54:29;2.10;99.90
21481;DHT22;10902;48.158;8.634;2023-02-01T07:56:55;2.10;99.90
21481;DHT22;10902;48.158;8.634;2023-02-01T07:59:21;2.20;99.90
21481;DHT22;10902;48.158;8.634;2023-02-01T08:01:46;2.20;99.90
21481;DHT22;10902;48.158;8.634;2023-02-01T08:04:12;2.30;99.90
21481;DHT22;10902;48.158;8.634;2023-02-01T08:06:39;2.30;99.90
21481;DHT22;10902;48.158;8.634;2023-02-01T08:09:06;2.30;99.90
21481;DHT22;10902;48.158;8.634;2023-02-01T08:11:33;2.30;99.90
21481;DHT22;10902;48.158;8.634;2023-02-01T08:13:59;2.30;99.90
21481;DHT22;10902;48.158;8.634;2023-02-01T08:16:25;2.40;99.90
21481;DHT22;10902;48.158;8.634;2023-02-01T08:18:51;2.40;99.90
21481;DHT22;10902;48.158;8.634;2023-02-01T08:21:20;2.40;99.90
21481;DHT22;10902;48.158;8.634;2023-02-01T08:23:47;2.40;99.90
21481;DHT22;10902;48.158;8.634;2023-02-01T08:26:24;2.50;99.90
21481;DHT22;10902;48.158;8.634;2023-02-01T08:28:58;2.50;99.90
21481;DHT22;10902;48.158;8.634;2023-02-01T08:31:27;2.40;99.90
21481;DHT22;10902;48.158;8.634;2023-02-01T08:33:55;2.30;99.90
21481;DHT22;10902;48.158;8.634;2023-02-01T08:36:22;2.40;99.90
21481;DHT22;10902;48.158;8.634;2023-02-01T08:38:48;2.40;99.90
21481;DHT22;10902;48.158;8.634;2023-02-01T08:41:17;2.40;99.90
21481;DHT22;10902;48.158;8.634;2023-02-01T08:43:43;2.50;99.90
21481;DHT22;10902;48.158;8.634;2023-02-01T08:46:10;2.40;99.90
21481;DHT22;10902;48.158;8.634;2023-02-01T08:48:36;2.40;99.90
21481;DHT22;10902;48.158;8.634;2023-02-01T08:51:10;2.50;99.90
21481;DHT22;10902;48.158;8.634;2023-02-01T08:53:37;2.50;99.90
21481;DHT22;10902;48.158;8.634;2023-02-01T08:56:04;2.50;99.90
21481;DHT22;10902;48.158;8.634;2023-02-01T08:58:30;2.50;99.90
21481;DHT22;10902;48.158;8.634;2023-02-01T09:00:55;2.70;99.90
21481;DHT22;10902;48.158;8.634;2023-02-01T09:03:21;2.90;99.90
21481;DHT22;10902;48.158;8.634;2023-02-01T09:05:47;3.10;99.90
21481;DHT22;10902;48.158;8.634;2023-02-01T09:08:13;3.20;99.90
21481;DHT22;10902;48.158;8.634;2023-02-01T09:10:41;3.30;99.90
21481;DHT22;10902;48.158;8.634;2023-02-01T09:13:08;3.40;99.90
21481;DHT22;10902;48.158;8.634;2023-02-01T09:15:34;3.60;99.90
21481;DHT22;10902;48.158;8.634;2023-02-01T09:18:01;3.60;99.90
21481;DHT22;10902;48.158;8.634;2023-02-01T09:20:26;3.50;99.90
21481;DHT22;10902;48.158;8.634;2023-02-01T09:22:52;3.50;99.90
21481;DHT22;10902;48.158;8.634;2023-02-01T09:25:18;3.40;99.90
21481;DHT22;10902;48.158;8.634;2023-02-01T09:27:44;3.30;99.90
21481;DHT22;10902;48.158;8.634;2023-02-01T09:30:10;3.40;99.90
21481;DHT22;10902;48.158;8.634;2023-02-01T09:32:36;3.50;99.90
21481;DHT22;10902;48.158;8.634;2023-02-01T09:35:01;3.50;99.90
21481;DHT22;10902;48.158;8.634;2023-02-01T09:37:27;3.50;99.90
21481;DHT22;10902;48.158;8.634;2023-02-01T09:39:52;3.60;99.90
21481;DHT22;10902;48.158;8.634;2023-02-01T09:48:19;3.40;99.90
21481;DHT22;10902;48.158;8.634;2023-02-01T09:50:51;3.50;99.90
21481;DHT22;10902;48.158;8.634;2023-02-01T09:53:35;3.40;99.90
21481;DHT22;10902;48.158;8.634;2023-02-01T09:56:06;3.50;99.90
21481;DHT22;10902;48.158;8.634;2023-02-01T09:58:44;3.60;99.90
21481;DHT22;10902;48.158;8.634;2023-02-01T10:01:20;3.80;99.90
21481;DHT22;10902;48.158;8.634;2023-02-01T10:03:48;3.80;99.90
21481;DHT22;10902;48.158;8.634;2023-02-01T10:17:42;3.60;99.90
21481;DHT22;10902;48.158;8.634;2023-02-01T10:23:35;3.50;99.90
21481;DHT22;10902;48.158;8.634;2023-02-01T10:26:22;3.60;99.90
21481;DHT22;10902;48.158;8.634;2023-02-01T10:28:51;3.60;99.90
21481;DHT22;10902;48.158;8.634;2023-02-01T10:31:18;3.60;99.90
21481;DHT22;10902;48.158;8.634;2023-02-01T10:33:51;3.60;99.90
21481;DHT22;10902;48.158;8.634;2023-02-01T10:36:32;3.50;99.90
21481;DHT22;10902;48.158;8.634;2023-02-01T10:39:02;3.50;99.90
21481;DHT22;10902;48.158;8.634;2023-02-01T10:41:37;3.50;99.90
21481;DHT22;10902;48.158;8.634;2023-02-01T10:44:10;3.40;99.90
21481;DHT22;10902;48.158;8.634;2023-02-01T10:46:37;3.50;99.90
21481;DHT22;10902;48.158;8.634;2023-02-01T10:49:04;3.50;99.90
21481;DHT22;10902;48.158;8.634;2023-02-01T10:51:51;3.50;99.90
21481;DHT22;10902;48.158;8.634;2023-02-01T10:54:31;3.50;99.90
21481;DHT22;10902;48.158;8.634;2023-02-01T10:56:57;3.40;99.90
21481;DHT22;10902;48.158;8.634;2023-02-01T10:59:28;3.30;99.90
21481;DHT22;10902;48.158;8.634;2023-02-01T11:02:02;3.20;99.90
21481;DHT22;10902;48.158;8.634;2023-02-01T11:04:34;3.20;99.90
21481;DHT22;10902;48.158;8.634;2023-02-01T11:07:24;3.30;99.90
21481;DHT22;10902;48.158;8.634;2023-02-01T11:09:52;3.40;99.90
21481;DHT22;10902;48.158;8.634;2023-02-01T11:12:36;3.50;99.90
21481;DHT22;10902;48.158;8.634;2023-02-01T11:15:22;3.70;99.90
21481;DHT22;10902;48.158;8.634;2023-02-01T11:17:50;3.80;99.90
21481;DHT22;10902;48.158;8.634;2023-02-01T11:20:37;3.80;99.90
21481;DHT22;10902;48.158;8.634;2023-02-01T11:23:05;4.10;99.90
21481;DHT22;10902;48.158;8.634;2023-02-01T11:25:32;4.00;99.90
21481;DHT22;10902;48.158;8.634;2023-02-01T11:28:01;3.90;99.90
21481;DHT22;10902;48.158;8.634;2023-02-01T11:30:34;3.70;99.90
21481;DHT22;10902;48.158;8.634;2023-02-01T11:33:03;3.50;99.90
21481;DHT22;10902;48.158;8.634;2023-02-01T11:35:30;3.10;99.90
21481;DHT22;10902;48.158;8.634;2023-02-01T11:38:00;3.00;99.90
21481;DHT22;10902;48.158;8.634;2023-02-01T11:40:35;3.00;99.90
21481;DHT22;10902;48.158;8.634;2023-02-01T11:43:27;3.20;99.90
21481;DHT22;10902;48.158;8.634;2023-02-01T11:46:03;3.20;99.90
21481;DHT22;10902;48.158;8.634;2023-02-01T11:48:39;3.20;99.90
21481;DHT22;10902;48.158;8.634;2023-02-01T11:54:06;2.90;99.90
21481;DHT22;10902;48.158;8.634;2023-02-01T11:56:37;2.80;99.90
21481;DHT22;10902;48.158;8.634;2023-02-01T11:59:33;2.70;99.90
21481;DHT22;10902;48.158;8.634;2023-02-01T12:10:17;2.50;99.90
21481;DHT22;10902;48.158;8.634;2023-02-01T12:21:53;2.40;99.90
21481;DHT22;10902;48.158;8.634;2023-02-01T12:35:44;3.50;99.90
21481;DHT22;10902;48.158;8.634;2023-02-01T12:41:06;3.90;99.90
21481;DHT22;10902;48.158;8.634;2023-02-01T12:43:48;4.90;99.90
21481;DHT22;10902;48.158;8.634;2023-02-01T12:46:19;5.90;99.90
21481;DHT22;10902;48.158;8.634;2023-02-01T12:49:11;5.80;99.90
21481;DHT22;10902;48.158;8.634;2023-02-01T12:51:42;4.90;99.90
21481;DHT22;10902;48.158;8.634;2023-02-01T12:54:32;4.30;99.90
21481;DHT22;10902;48.158;8.634;2023-02-01T12:57:06;3.80;99.90
21481;DHT22;10902;48.158;8.634;2023-02-01T12:59:41;3.60;99.90
21481;DHT22;10902;48.158;8.634;2023-02-01T13:02:32;3.60;99.90
21481;DHT22;10902;48.158;8.634;2023-02-01T13:05:22;3.50;99.90
21481;DHT22;10902;48.158;8.634;2023-02-01T13:07:55;3.50;99.90
21481;DHT22;10902;48.158;8.634;2023-02-01T13:10:41;3.60;99.90
21481;DHT22;10902;48.158;8.634;2023-02-01T13:18:25;3.70;99.90
21481;DHT22;10902;48.158;8.634;2023-02-01T13:20:54;3.80;99.90
21481;DHT22;10902;48.158;8.634;2023-02-01T13:23:28;3.70;99.90
21481;DHT22;10902;48.158;8.634;2023-02-01T13:25:54;3.70;99.90
21481;DHT22;10902;48.158;8.634;2023-02-01T13:28:27;3.70;99.90
21481;DHT22;10902;48.158;8.634;2023-02-01T13:31:10;3.70;99.90
21481;DHT22;10902;48.158;8.634;2023-02-01T13:42:56;3.70;99.90
21481;DHT22;10902;48.158;8.634;2023-02-01T13:45:32;3.70;99.90
21481;DHT22;10902;48.158;8.634;2023-02-01T13:48:03;3.70;99.90
21481;DHT22;10902;48.158;8.634;2023-02-01T13:50:37;3.70;99.90
21481;DHT22;10902;48.158;8.634;2023-02-01T13:53:17;3.70;99.90
21481;DHT22;10902;48.158;8.634;2023-02-01T13:55:45;3.60;99.90
21481;DHT22;10902;48.158;8.634;2023-02-01T14:03:46;3.70;99.90
21481;DHT22;10902;48.158;8.634;2023-02-01T14:19:29;3.70;99.90
21481;DHT22;10902;48.158;8.634;2023-02-01T14:21:59;3.60;99.90
21481;DHT22;10902;48.158;8.634;2023-02-01T14:24:29;3.60;99.90
21481;DHT22;10902;48.158;8.634;2023-02-01T14:26:58;3.60;99.90
21481;DHT22;10902;48.158;8.634;2023-02-01T14:29:33;3.60;99.90
21481;DHT22;10902;48.158;8.634;2023-02-01T14:42:23;3.50;99.90
21481;DHT22;10902;48.158;8.634;2023-02-01T14:44:50;3.60;99.90
21481;DHT22;10902;48.158;8.634;2023-02-01T14:47:29;3.70;99.90
21481;DHT22;10902;48.158;8.634;2023-02-01T14:52:33;3.60;99.90
21481;DHT22;10902;48.158;8.634;2023-02-01T14:55:04;3.60;99.90
21481;DHT22;10902;48.158;8.634;2023-02-01T14:57:33;3.60;99.90
21481;DHT22;10902;48.158;8.634;2023-02-01T15:05:57;3.40;99.90
21481;DHT22;10902;48.158;8.634;2023-02-01T15:08:33;3.50;99.90
21481;DHT22;10902;48.158;8.634;2023-02-01T15:11:02;3.50;99.90
21481;DHT22;10902;48.158;8.634;2023-02-01T15:13:32;3.50;99.90
21481;DHT22;10902;48.158;8.634;2023-02-01T15:18:29;3.40;99.90
21481;DHT22;10902;48.158;8.634;2023-02-01T15:21:00;3.50;99.90
21481;DHT22;10902;48.158;8.634;2023-02-01T15:23:26;3.40;99.90
21481;DHT22;10902;48.158;8.634;2023-02-01T15:25:53;3.40;99.90
21481;DHT22;10902;48.158;8.634;2023-02-01T15:28:19;3.40;99.90
21481;DHT22;10902;48.158;8.634;2023-02-01T15:30:58;3.30;99.90
21481;DHT22;10902;48.158;8.634;2023-02-01T15:33:25;3.30;99.90
21481;DHT22;10902;48.158;8.634;2023-02-01T15:44:02;3.30;99.90
21481;DHT22;10902;48.158;8.634;2023-02-01T15:46:45;3.30;99.90
21481;DHT22;10902;48.158;8.634;2023-02-01T15:51:47;3.20;99.90
21481;DHT22;10902;48.158;8.634;2023-02-01T15:54:18;3.20;99.90
21481;DHT22;10902;48.158;8.634;2023-02-01T15:56:52;3.20;99.90
21481;DHT22;10902;48.158;8.634;2023-02-01T15:59:42;3.20;99.90
21481;DHT22;10902;48.158;8.634;2023-02-01T16:02:25;3.20;99.90
21481;DHT22;10902;48.158;8.634;2023-02-01T16:04:51;3.20;99.90
21481;DHT22;10902;48.158;8.634;2023-02-01T16:07:30;3.20;99.90
21481;DHT22;10902;48.158;8.634;2023-02-01T16:10:03;3.20;99.90
21481;DHT22;10902;48.158;8.634;2023-02-01T16:12:46;3.10;99.90
21481;DHT22;10902;48.158;8.634;2023-02-01T16:15:12;3.10;99.90
21481;DHT22;10902;48.158;8.634;2023-02-01T16:17:38;3.10;99.90
21481;DHT22;10902;48.158;8.634;2023-02-01T16:20:04;3.10;99.90
21481;DHT22;10902;48.158;8.634;2023-02-01T16:22:30;3.00;99.90
21481;DHT22;10902;48.158;8.634;2023-02-01T16:24:56;2.90;99.90
21481;DHT22;10902;48.158;8.634;2023-02-01T16:27:22;2.90;99.90
21481;DHT22;10902;48.158;8.634;2023-02-01T16:29:48;3.00;99.90
21481;DHT22;10902;48.158;8.634;2023-02-01T16:32:19;3.00;99.90
21481;DHT22;10902;48.158;8.634;2023-02-01T16:34:47;2.90;99.90
21481;DHT22;10902;48.158;8.634;2023-02-01T16:37:18;2.90;99.90
21481;DHT22;10902;48.158;8.634;2023-02-01T16:39:45;2.90;99.90
21481;DHT22;10902;48.158;8.634;2023-02-01T16:42:12;3.00;99.90
21481;DHT22;10902;48.158;8.634;2023-02-01T16:44:38;2.90;99.90
21481;DHT22;10902;48.158;8.634;2023-02-01T16:47:12;2.90;99.90
21481;DHT22;10902;48.158;8.634;2023-02-01T16:49:40;2.80;99.90
21481;DHT22;10902;48.158;8.634;2023-02-01T16:52:16;2.80;99.90
21481;DHT22;10902;48.158;8.634;2023-02-01T16:54:43;2.80;99.90
21481;DHT22;10902;48.158;8.634;2023-02-01T16:57:13;2.90;99.90
21481;DHT22;10902;48.158;8.634;2023-02-01T16:59:39;2.90;99.90
21481;DHT22;10902;48.158;8.634;2023-02-01T17:02:06;2.90;99.90
21481;DHT22;10902;48.158;8.634;2023-02-01T17:04:31;2.90;99.90
21481;DHT22;10902;48.158;8.634;2023-02-01T17:06:57;2.80;99.90
21481;DHT22;10902;48.158;8.634;2023-02-01T17:09:23;2.80;99.90
21481;DHT22;10902;48.158;8.634;2023-02-01T17:11:50;2.90;99.90
21481;DHT22;10902;48.158;8.634;2023-02-01T17:14:19;2.90;99.90
21481;DHT22;10902;48.158;8.634;2023-02-01T17:16:46;2.90;99.90
21481;DHT22;10902;48.158;8.634;2023-02-01T17:19:15;2.90;99.90
21481;DHT22;10902;48.158;8.634;2023-02-01T17:21:55;2.90;99.90
21481;DHT22;10902;48.158;8.634;2023-02-01T17:24:26;2.90;99.90
21481;DHT22;10902;48.158;8.634;2023-02-01T17:26:52;2.90;99.90
21481;DHT22;10902;48.158;8.634;2023-02-01T17:29:18;2.70;99.90
21481;DHT22;10902;48.158;8.634;2023-02-01T17:31:47;2.70;99.90
21481;DHT22;10902;48.158;8.634;2023-02-01T17:34:13;2.70;99.90
21481;DHT22;10902;48.158;8.634;2023-02-01T17:36:40;2.80;99.90
21481;DHT22;10902;48.158;8.634;2023-02-01T17:39:06;2.70;99.90
21481;DHT22;10902;48.158;8.634;2023-02-01T17:41:31;2.80;99.90
21481;DHT22;10902;48.158;8.634;2023-02-01T17:43:57;2.80;99.90
21481;DHT22;10902;48.158;8.634;2023-02-01T17:46:23;2.80;99.90
21481;DHT22;10902;48.158;8.634;2023-02-01T17:48:52;2.80;99.90
21481;DHT22;10902;48.158;8.634;2023-02-01T17:51:24;2.80;99.90
21481;DHT22;10902;48.158;8.634;2023-02-01T17:53:51;2.80;99.90
21481;DHT22;10902;48.158;8.634;2023-02-01T17:56:22;2.80;99.90
21481;DHT22;10902;48.158;8.634;2023-02-01T17:58:49;2.70;99.90
21481;DHT22;10902;48.158;8.634;2023-02-01T18:01:19;2.70;99.90
21481;DHT22;10902;48.158;8.634;2023-02-01T18:03:45;2.60;99.90
21481;DHT22;10902;48.158;8.634;2023-02-01T18:06:16;2.60;99.90
21481;DHT22;10902;48.158;8.634;2023-02-01T18:08:42;2.60;99.90
21481;DHT22;10902;48.158;8.634;2023-02-01T18:11:19;2.60;99.90
21481;DHT22;10902;48.158;8.634;2023-02-01T18:13:46;2.60;99.90
21481;DHT22;10902;48.158;8.634;2023-02-01T18:16:26;2.70;99.90
21481;DHT22;10902;48.158;8.634;2023-02-01T18:18:52;2.60;99.90
21481;DHT22;10902;48.158;8.634;2023-02-01T18:21:20;2.60;99.90
21481;DHT22;10902;48.158;8.634;2023-02-01T18:23:46;2.60;99.90
21481;DHT22;10902;48.158;8.634;2023-02-01T18:26:13;2.60;99.90
21481;DHT22;10902;48.158;8.634;2023-02-01T18:28:39;2.70;99.90
21481;DHT22;10902;48.158;8.634;2023-02-01T18:31:16;2.70;99.90
21481;DHT22;10902;48.158;8.634;2023-02-01T18:33:45;2.80;99.90
21481;DHT22;10902;48.158;8.634;2023-02-01T18:36:12;2.80;99.90